Portales, New Mexico
Current Conditions -  °F | °C
As of 2:58 PM on Thursday 27 Nov 2014 (Local Time) from KCVS Reporting Station
Clear Clear  
Wind Chill: 64°   Ceiling: Unl
Heat Index: 64°   Visibility: 10mi
Dew Point: 26°   Wind: 15mph
Humidity: 24%   Direction: 220°SW
Pressure: 30.26"   Gusts: NA
Location:  34.18°N, 103.33°W
Report Text: KCVS 272158Z AUTO 22013KT 10SM CLR 18/M03 A3026 RMK AO2 SLP231 T01781031 $
Loading
Personal Weather Stations






























Interactive Weather Map New forecast layout! Learn more

10-Day Weather Forecast

Advertisements
Track Severe Weather on mobile